createdAt,value
2023-05-17T00:00:41.374Z,1.50
2023-05-17T00:03:30.410Z,1.52
2023-05-17T00:06:19.318Z,1.67
2023-05-17T00:09:07.746Z,1.60
2023-05-17T00:11:55.453Z,1.48
2023-05-17T00:14:45.441Z,2.00
2023-05-17T00:17:37.521Z,2.45
2023-05-17T00:20:26.427Z,2.60
2023-05-17T00:23:14.645Z,2.67
2023-05-17T00:26:02.975Z,2.78
2023-05-17T00:28:51.464Z,2.70
2023-05-17T00:31:39.707Z,2.80
2023-05-17T00:34:30.007Z,2.95
2023-05-17T00:37:17.919Z,2.78
2023-05-17T00:40:07.817Z,2.30
2023-05-17T00:42:56.437Z,2.20
2023-05-17T00:45:46.048Z,2.13
2023-05-17T00:48:35.555Z,2.00
2023-05-17T00:51:25.951Z,2.10
2023-05-17T00:54:16.296Z,2.20
2023-05-17T00:57:06.542Z,2.00
2023-05-17T00:59:56.350Z,1.80
2023-05-17T01:02:48.645Z,1.70
2023-05-17T01:05:37.428Z,1.85
2023-05-17T01:08:26.858Z,1.67
2023-05-17T01:11:29.357Z,1.63
2023-05-17T01:14:37.961Z,1.73
2023-05-17T01:17:40.445Z,1.98
2023-05-17T01:20:38.552Z,1.90
2023-05-17T01:23:44.228Z,1.95
2023-05-17T01:26:40.886Z,1.80
2023-05-17T01:29:32.093Z,1.90
2023-05-17T01:32:21.434Z,1.65
2023-05-17T01:35:12.151Z,2.00
2023-05-17T01:38:00.350Z,1.70
2023-05-17T01:40:58.083Z,1.75
2023-05-17T01:43:56.656Z,1.77
2023-05-17T01:46:45.645Z,1.58
2023-05-17T01:49:41.969Z,1.70
2023-05-17T01:52:40.231Z,1.60
2023-05-17T01:55:36.372Z,1.95
2023-05-17T01:58:27.464Z,1.60
2023-05-17T02:01:20.785Z,1.30
2023-05-17T02:04:09.286Z,1.42
2023-05-17T02:06:57.779Z,1.50
2023-05-17T02:09:46.096Z,1.27
2023-05-17T02:12:34.303Z,1.20
2023-05-17T02:15:22.592Z,1.52
2023-05-17T02:18:13.267Z,1.55
2023-05-17T02:21:01.501Z,1.60
2023-05-17T02:23:50.160Z,1.45
2023-05-17T02:26:38.527Z,1.48
2023-05-17T02:29:26.873Z,1.48
2023-05-17T02:32:15.048Z,2.17
2023-05-17T02:35:05.683Z,1.83
2023-05-17T02:37:54.259Z,1.58
2023-05-17T02:40:45.895Z,1.40
2023-05-17T02:43:34.798Z,1.77
2023-05-17T02:46:24.038Z,1.67
2023-05-17T02:49:12.257Z,1.73
2023-05-17T02:52:02.570Z,1.90
2023-05-17T02:54:51.650Z,1.80
2023-05-17T02:57:39.904Z,1.55
2023-05-17T03:00:28.180Z,1.33
2023-05-17T03:03:16.668Z,1.35
2023-05-17T03:06:05.927Z,1.30
2023-05-17T03:08:55.655Z,1.48
2023-05-17T03:11:44.013Z,1.10
2023-05-17T03:14:32.356Z,1.42
2023-05-17T03:17:20.356Z,1.60
2023-05-17T03:20:10.231Z,1.30
2023-05-17T03:22:58.450Z,1.48
2023-05-17T03:25:50.988Z,1.40
2023-05-17T03:28:39.309Z,1.55
2023-05-17T03:31:29.734Z,1.30
2023-05-17T03:34:18.234Z,1.23
2023-05-17T03:37:07.509Z,1.60
2023-05-17T03:39:55.494Z,1.23
2023-05-17T03:42:45.801Z,1.40
2023-05-17T03:45:35.318Z,1.30
2023-05-17T03:48:23.516Z,1.48
2023-05-17T03:51:11.908Z,1.50
2023-05-17T03:54:02.265Z,1.35
2023-05-17T03:56:51.013Z,1.52
2023-05-17T03:59:40.737Z,1.35
2023-05-17T04:02:29.031Z,1.50
2023-05-17T04:05:17.543Z,1.52
2023-05-17T04:08:11.012Z,1.67
2023-05-17T04:10:59.086Z,1.75
2023-05-17T04:13:47.572Z,1.42
2023-05-17T04:16:37.112Z,1.50
2023-05-17T04:19:26.712Z,1.25
2023-05-17T04:22:16.599Z,1.40
2023-05-17T04:25:04.592Z,1.58
2023-05-17T04:27:53.129Z,1.70
2023-05-17T04:30:45.981Z,1.80
2023-05-17T04:33:36.000Z,1.58
2023-05-17T04:36:25.842Z,2.75
2023-05-17T04:39:13.721Z,1.63
2023-05-17T04:42:02.432Z,1.58
2023-05-17T04:44:50.690Z,1.42
2023-05-17T04:47:38.850Z,1.60
2023-05-17T04:50:29.186Z,1.58
2023-05-17T04:53:18.146Z,1.50
2023-05-17T04:56:07.084Z,1.75
2023-05-17T04:58:56.303Z,1.80
2023-05-17T05:01:46.842Z,1.75
2023-05-17T05:04:34.946Z,2.00
2023-05-17T05:07:25.683Z,1.83
2023-05-17T05:10:14.322Z,2.60
2023-05-17T05:13:03.352Z,1.98
2023-05-17T05:15:52.427Z,2.10
2023-05-17T05:18:42.141Z,1.73
2023-05-17T05:21:33.008Z,1.70
2023-05-17T05:24:24.926Z,1.90
2023-05-17T05:27:13.376Z,1.92
2023-05-17T05:30:03.117Z,1.50
2023-05-17T05:32:55.190Z,1.80
2023-05-17T05:35:46.784Z,1.73
2023-05-17T05:38:35.151Z,1.80
2023-05-17T05:41:29.159Z,1.98
2023-05-17T05:44:19.939Z,2.00
2023-05-17T05:47:09.083Z,1.35
2023-05-17T05:49:57.942Z,2.00
2023-05-17T05:52:46.869Z,1.65
2023-05-17T05:55:36.594Z,1.90
2023-05-17T05:58:26.239Z,1.85
2023-05-17T06:10:43.249Z,2.47
2023-05-17T06:21:00.456Z,2.22
2023-05-17T06:27:04.761Z,2.58
2023-05-17T06:29:55.029Z,2.60
2023-05-17T06:32:57.908Z,2.40
2023-05-17T06:38:47.719Z,2.65
2023-05-17T06:45:53.914Z,2.92
2023-05-17T06:58:22.188Z,2.90
2023-05-17T07:01:14.328Z,2.90
2023-05-17T07:07:25.576Z,2.90
2023-05-17T07:13:38.970Z,4.10
2023-05-17T07:16:28.718Z,4.32
2023-05-17T07:19:26.765Z,3.70
2023-05-17T07:28:32.478Z,3.15
2023-05-17T07:31:25.344Z,4.30
2023-05-17T07:37:43.591Z,3.15
2023-05-17T07:40:41.168Z,3.83
2023-05-17T07:46:46.514Z,4.05
2023-05-17T07:49:48.958Z,3.50
2023-05-17T07:52:44.144Z,3.40
2023-05-17T07:55:36.909Z,3.20
2023-05-17T07:58:41.824Z,3.17
2023-05-17T08:01:30.870Z,4.70
2023-05-17T08:04:28.065Z,4.13
2023-05-17T08:10:45.453Z,3.60
2023-05-17T08:23:30.276Z,4.00
2023-05-17T08:26:30.544Z,3.97
2023-05-17T08:29:19.128Z,3.58
2023-05-17T08:32:12.356Z,3.50
2023-05-17T08:38:07.067Z,3.55
2023-05-17T08:40:57.181Z,3.03
2023-05-17T08:43:51.191Z,3.20
2023-05-17T08:50:01.240Z,6.38
2023-05-17T08:52:51.566Z,9.80
2023-05-17T08:55:43.732Z,11.45
2023-05-17T08:58:56.879Z,7.18
2023-05-17T09:02:03.935Z,4.22
2023-05-17T09:04:56.242Z,4.53
2023-05-17T09:07:45.377Z,4.88
2023-05-17T09:10:34.044Z,4.57
2023-05-17T09:13:23.072Z,3.85
2023-05-17T09:16:21.436Z,3.72
2023-05-17T09:19:18.768Z,3.63
2023-05-17T09:22:09.330Z,3.70
2023-05-17T09:25:06.627Z,3.55
2023-05-17T09:28:04.005Z,3.67
2023-05-17T09:30:54.209Z,4.13
2023-05-17T09:37:13.006Z,4.13
2023-05-17T09:40:09.299Z,4.15
2023-05-17T09:43:07.010Z,4.07
2023-05-17T09:46:08.144Z,3.30
2023-05-17T09:48:57.723Z,3.60
2023-05-17T09:51:50.762Z,3.88
2023-05-17T09:54:41.698Z,3.35
2023-05-17T09:57:41.530Z,3.50
2023-05-17T10:00:32.661Z,3.90
2023-05-17T10:03:21.388Z,4.28
2023-05-17T10:06:19.685Z,4.22
2023-05-17T10:09:49.021Z,3.90
2023-05-17T10:12:57.461Z,3.92
2023-05-17T10:15:49.048Z,4.00
2023-05-17T10:18:50.749Z,4.50
2023-05-17T10:21:41.484Z,4.50
2023-05-17T10:24:47.120Z,4.28
2023-05-17T10:27:38.708Z,5.65
2023-05-17T10:30:28.665Z,5.88
2023-05-17T10:33:24.861Z,5.68
2023-05-17T10:36:32.763Z,4.22
2023-05-17T10:39:25.395Z,6.15
2023-05-17T10:42:17.940Z,4.40
2023-05-17T10:45:09.924Z,6.50
2023-05-17T10:48:01.266Z,5.22
2023-05-17T10:51:01.045Z,6.15
2023-05-17T10:54:18.917Z,6.25
2023-05-17T10:57:09.289Z,6.25
2023-05-17T11:00:00.657Z,7.38
2023-05-17T11:02:51.729Z,6.88
2023-05-17T11:05:44.999Z,7.15
2023-05-17T11:08:34.103Z,6.78
2023-05-17T11:11:25.786Z,6.63
2023-05-17T11:14:16.922Z,6.60
2023-05-17T11:17:16.248Z,6.32
2023-05-17T11:20:13.480Z,6.22
2023-05-17T11:23:06.064Z,7.15
2023-05-17T11:25:56.346Z,7.30
2023-05-17T11:28:47.119Z,6.18
2023-05-17T11:34:57.781Z,6.68
2023-05-17T11:38:20.730Z,6.70
2023-05-17T11:41:27.528Z,5.78
2023-05-17T11:44:19.494Z,6.72
2023-05-17T11:47:12.180Z,5.35
2023-05-17T11:52:58.619Z,5.40
2023-05-17T11:55:55.737Z,6.40
2023-05-17T11:58:59.085Z,7.88
2023-05-17T12:01:52.419Z,6.82
2023-05-17T12:04:41.475Z,6.28
2023-05-17T12:07:31.729Z,7.53
2023-05-17T12:10:22.222Z,3.70
2023-05-17T12:16:38.601Z,4.30
2023-05-17T12:22:33.914Z,3.28
2023-05-17T12:25:26.076Z,3.28
2023-05-17T12:28:22.943Z,3.28
2023-05-17T12:31:34.052Z,3.53
2023-05-17T12:34:23.532Z,3.47
2023-05-17T12:40:20.380Z,3.70
2023-05-17T12:43:11.472Z,3.58
2023-05-17T12:46:07.856Z,3.70
2023-05-17T12:49:13.030Z,4.53
2023-05-17T12:52:06.447Z,3.45
2023-05-17T12:54:56.286Z,4.10
2023-05-17T12:57:56.803Z,3.60
2023-05-17T13:01:00.475Z,3.90
2023-05-17T13:03:56.693Z,3.72
2023-05-17T13:06:48.821Z,3.92
2023-05-17T13:09:49.269Z,3.97
2023-05-17T13:12:42.141Z,3.95
2023-05-17T13:18:39.618Z,6.20
2023-05-17T13:21:34.060Z,4.75
2023-05-17T13:24:26.403Z,4.43
2023-05-17T13:27:15.517Z,4.85
2023-05-17T13:30:05.105Z,4.43
2023-05-17T13:33:03.607Z,4.18
2023-05-17T13:35:52.061Z,5.28
2023-05-17T13:38:41.220Z,10.93
2023-05-17T13:41:30.774Z,9.82
2023-05-17T13:44:19.033Z,15.02
2023-05-17T13:47:08.771Z,9.25
2023-05-17T13:49:58.226Z,4.15
2023-05-17T13:52:47.136Z,4.45
2023-05-17T13:55:35.096Z,3.95
2023-05-17T13:58:25.206Z,4.95
2023-05-17T14:01:13.237Z,4.47
2023-05-17T14:04:02.052Z,3.88
2023-05-17T14:06:54.798Z,3.70
2023-05-17T14:09:43.741Z,3.92
2023-05-17T14:12:32.016Z,5.70
2023-05-17T14:15:22.138Z,6.82
2023-05-17T14:18:11.884Z,7.03
2023-05-17T14:21:01.349Z,7.15
2023-05-17T14:23:49.726Z,7.50
2023-05-17T14:26:38.232Z,8.63
2023-05-17T14:29:27.012Z,6.18
2023-05-17T14:32:21.615Z,10.05
2023-05-17T14:35:12.165Z,3.95
2023-05-17T14:38:02.617Z,5.72
2023-05-17T14:40:53.755Z,4.55
2023-05-17T14:43:42.375Z,3.47
2023-05-17T14:46:30.429Z,4.53
2023-05-17T14:49:20.921Z,3.70
2023-05-17T14:52:11.216Z,3.47
2023-05-17T14:54:59.849Z,9.82
2023-05-17T14:57:48.723Z,4.05
2023-05-17T15:00:37.032Z,7.80
2023-05-17T15:03:27.213Z,6.57
2023-05-17T15:06:17.534Z,9.23
2023-05-17T15:09:05.715Z,4.50
2023-05-17T15:11:54.862Z,6.50
2023-05-17T15:14:43.534Z,8.88
2023-05-17T15:17:32.252Z,4.38
2023-05-17T15:20:26.830Z,6.50
2023-05-17T15:23:17.163Z,6.72
2023-05-17T15:26:05.370Z,4.82
2023-05-17T15:28:54.662Z,6.90
2023-05-17T15:31:42.905Z,4.20
2023-05-17T15:34:31.277Z,3.55
2023-05-17T15:37:21.110Z,5.15
2023-05-17T15:40:16.985Z,4.68
2023-05-17T15:43:05.226Z,5.38
2023-05-17T15:45:54.138Z,4.45
2023-05-17T15:48:56.817Z,2.83
2023-05-17T15:51:52.367Z,2.80
2023-05-17T15:54:43.156Z,3.03
2023-05-17T15:57:35.294Z,4.15
2023-05-17T16:03:11.718Z,4.03
2023-05-17T16:05:59.584Z,3.78
2023-05-17T16:08:47.600Z,3.50
2023-05-17T16:11:35.160Z,5.68
2023-05-17T16:14:24.109Z,5.13
2023-05-17T16:17:11.727Z,3.22
2023-05-17T16:19:59.679Z,3.58
2023-05-17T16:22:47.763Z,3.35
2023-05-17T16:25:36.113Z,3.60
2023-05-17T16:28:24.695Z,3.92
2023-05-17T16:31:13.861Z,3.97
2023-05-17T16:34:01.578Z,3.80
2023-05-17T16:36:50.574Z,3.35
2023-05-17T16:48:31.086Z,3.10
2023-05-17T16:51:25.349Z,3.50
2023-05-17T16:54:13.304Z,3.30
2023-05-17T16:57:02.091Z,3.28
2023-05-17T16:59:49.934Z,3.47
2023-05-17T17:02:37.628Z,3.45
2023-05-17T17:05:27.005Z,3.55
2023-05-17T17:08:14.563Z,4.00
2023-05-17T17:11:02.163Z,4.15
2023-05-17T17:13:50.067Z,4.07
2023-05-17T17:16:38.169Z,2.63
2023-05-17T17:19:25.866Z,3.20
2023-05-17T17:22:16.255Z,4.07
2023-05-17T17:25:04.112Z,4.28
2023-05-17T17:27:53.242Z,4.22
2023-05-17T17:30:41.059Z,3.80
2023-05-17T17:33:28.581Z,3.45
2023-05-17T17:36:16.177Z,3.90
2023-05-17T17:39:05.331Z,2.80
2023-05-17T17:41:53.045Z,3.00
2023-05-17T17:44:40.598Z,3.88
2023-05-17T17:47:28.295Z,3.65
2023-05-17T17:50:16.216Z,3.50
2023-05-17T17:53:03.676Z,5.28
2023-05-17T17:55:53.030Z,5.22
2023-05-17T17:58:41.296Z,5.43
2023-05-17T18:01:32.490Z,3.60
2023-05-17T18:04:20.181Z,5.95
2023-05-17T18:07:08.077Z,2.97
2023-05-17T18:09:57.042Z,2.90
2023-05-17T18:12:46.414Z,3.60
2023-05-17T18:15:33.949Z,2.90
2023-05-17T18:18:21.479Z,3.17
2023-05-17T18:21:10.469Z,3.63
2023-05-17T18:23:58.334Z,4.90
2023-05-17T18:26:46.229Z,4.22
2023-05-17T18:29:35.380Z,3.70
2023-05-17T18:32:24.491Z,2.90
2023-05-17T18:35:12.806Z,3.60
2023-05-17T18:38:04.833Z,5.20
2023-05-17T18:40:52.679Z,4.28
2023-05-17T18:43:40.394Z,3.80
2023-05-17T18:46:30.363Z,2.92
2023-05-17T18:49:18.129Z,3.63
2023-05-17T18:52:06.488Z,6.10
2023-05-17T18:54:54.129Z,5.88
2023-05-17T18:57:43.018Z,5.47
2023-05-17T19:00:30.801Z,4.13
2023-05-17T19:03:19.789Z,3.30
2023-05-17T19:06:07.603Z,3.47
2023-05-17T19:08:58.070Z,3.60
2023-05-17T19:11:45.856Z,3.58
2023-05-17T19:14:33.622Z,4.22
2023-05-17T19:17:21.192Z,5.90
2023-05-17T19:20:11.986Z,5.30
2023-05-17T19:23:00.656Z,4.60
2023-05-17T19:25:48.190Z,3.75
2023-05-17T19:28:35.879Z,4.30
2023-05-17T19:31:23.921Z,4.43
2023-05-17T19:34:11.537Z,5.15
2023-05-17T19:37:00.256Z,4.80
2023-05-17T19:39:48.038Z,3.60
2023-05-17T19:42:35.537Z,3.33
2023-05-17T19:45:23.300Z,3.35
2023-05-17T19:48:12.037Z,3.22
2023-05-17T19:50:59.500Z,3.45
2023-05-17T19:53:52.431Z,3.67
2023-05-17T19:56:41.586Z,3.45
2023-05-17T19:59:29.671Z,3.40
2023-05-17T20:02:17.279Z,3.50
2023-05-17T20:05:06.013Z,3.30
2023-05-17T20:07:53.575Z,3.50
2023-05-17T20:10:42.765Z,3.92
2023-05-17T20:13:31.199Z,4.55
2023-05-17T20:16:19.249Z,4.10
2023-05-17T20:19:06.978Z,4.10
2023-05-17T20:21:55.046Z,3.40
2023-05-17T20:24:44.077Z,3.13
2023-05-17T20:27:33.447Z,3.67
2023-05-17T20:30:21.295Z,4.00
2023-05-17T20:33:10.626Z,3.20
2023-05-17T20:35:59.313Z,3.47
2023-05-17T20:38:46.981Z,3.45
2023-05-17T20:41:34.779Z,3.42
2023-05-17T20:44:24.356Z,3.55
2023-05-17T20:47:12.273Z,3.80
2023-05-17T20:49:59.934Z,4.55
2023-05-17T20:52:47.492Z,5.15
2023-05-17T20:55:34.965Z,5.15
2023-05-17T20:58:22.488Z,5.63
2023-05-17T21:01:11.624Z,4.50
2023-05-17T21:03:59.774Z,4.95
2023-05-17T21:06:47.327Z,5.93
2023-05-17T21:09:34.980Z,4.30
2023-05-17T21:12:23.916Z,5.97
2023-05-17T21:15:31.104Z,4.65
2023-05-17T21:18:19.997Z,3.65
2023-05-17T21:21:08.120Z,3.45
2023-05-17T21:23:55.719Z,4.30
2023-05-17T21:26:43.365Z,4.65
2023-05-17T21:29:31.312Z,4.85
2023-05-17T21:32:18.785Z,3.80
2023-05-17T21:35:09.381Z,4.13
2023-05-17T21:37:56.753Z,4.13
2023-05-17T21:40:44.699Z,3.40
2023-05-17T21:43:32.391Z,3.63
2023-05-17T21:46:19.895Z,3.50
2023-05-17T21:49:08.062Z,3.40
2023-05-17T21:51:57.193Z,3.65
2023-05-17T21:54:45.073Z,3.65
2023-05-17T21:57:36.223Z,3.75
2023-05-17T22:00:24.880Z,3.78
2023-05-17T22:03:12.825Z,3.70
2023-05-17T22:06:02.025Z,3.53
2023-05-17T22:08:51.205Z,3.75
2023-05-17T22:11:40.509Z,3.45
2023-05-17T22:14:33.255Z,3.28
2023-05-17T22:17:29.594Z,3.80
2023-05-17T22:20:23.469Z,3.53
2023-05-17T22:23:11.488Z,4.07
2023-05-17T22:26:00.697Z,3.47
2023-05-17T22:28:48.913Z,3.80
2023-05-17T22:31:38.010Z,4.93
2023-05-17T22:34:25.871Z,4.20
2023-05-17T22:37:13.696Z,4.80
2023-05-17T22:40:01.273Z,4.38
2023-05-17T23:01:10.282Z,2.97
2023-05-17T23:03:59.420Z,3.80
2023-05-17T23:06:47.364Z,3.13
2023-05-17T23:09:35.077Z,3.15
2023-05-17T23:12:27.482Z,3.42
2023-05-17T23:15:16.212Z,3.25
2023-05-17T23:18:05.681Z,3.33
2023-05-17T23:20:53.209Z,3.60
2023-05-17T23:23:40.731Z,3.58
2023-05-17T23:26:28.642Z,3.70
2023-05-17T23:29:16.256Z,3.45
2023-05-17T23:32:03.811Z,3.70
2023-05-17T23:34:54.198Z,3.28
2023-05-17T23:37:42.121Z,3.35
2023-05-17T23:40:30.795Z,3.67
2023-05-17T23:43:18.271Z,3.80
2023-05-17T23:46:06.102Z,4.10
2023-05-17T23:48:54.067Z,3.90
2023-05-17T23:51:43.316Z,4.28
2023-05-17T23:54:31.248Z,4.15
2023-05-17T23:57:19.046Z,4.32
